sensor_id;sensor_type;location;lat;lon;timestamp;temperature;humidity
666;DHT22;315;48.738;9.126;2024-03-08T00:00:58;3.70;99.90
666;DHT22;315;48.738;9.126;2024-03-08T00:03:24;3.80;99.90
666;DHT22;315;48.738;9.126;2024-03-08T00:05:49;3.80;99.90
666;DHT22;315;48.738;9.126;2024-03-08T00:08:15;3.80;99.90
666;DHT22;315;48.738;9.126;2024-03-08T00:10:40;3.80;99.90
666;DHT22;315;48.738;9.126;2024-03-08T00:13:06;3.80;99.90
666;DHT22;315;48.738;9.126;2024-03-08T00:15:32;3.70;99.90
666;DHT22;315;48.738;9.126;2024-03-08T00:17:57;3.70;99.90
666;DHT22;315;48.738;9.126;2024-03-08T00:20:23;3.70;99.90
666;DHT22;315;48.738;9.126;2024-03-08T00:22:48;3.60;99.90
666;DHT22;315;48.738;9.126;2024-03-08T00:25:14;3.60;99.90
666;DHT22;315;48.738;9.126;2024-03-08T00:27:40;3.60;99.90
666;DHT22;315;48.738;9.126;2024-03-08T00:30:06;3.60;99.90
666;DHT22;315;48.738;9.126;2024-03-08T00:32:33;3.60;99.90
666;DHT22;315;48.738;9.126;2024-03-08T00:34:59;3.50;99.90
666;DHT22;315;48.738;9.126;2024-03-08T00:37:24;3.50;99.90
666;DHT22;315;48.738;9.126;2024-03-08T00:39:50;3.60;99.90
666;DHT22;315;48.738;9.126;2024-03-08T00:42:17;3.50;99.90
666;DHT22;315;48.738;9.126;2024-03-08T00:44:42;3.50;99.90
666;DHT22;315;48.738;9.126;2024-03-08T00:47:08;3.50;99.90
666;DHT22;315;48.738;9.126;2024-03-08T00:49:33;3.50;99.90
666;DHT22;315;48.738;9.126;2024-03-08T00:51:59;3.40;99.90
666;DHT22;315;48.738;9.126;2024-03-08T00:54:25;3.40;99.90
666;DHT22;315;48.738;9.126;2024-03-08T00:56:51;3.40;99.90
666;DHT22;315;48.738;9.126;2024-03-08T00:59:17;3.30;99.90
666;DHT22;315;48.738;9.126;2024-03-08T01:01:42;3.30;99.90
666;DHT22;315;48.738;9.126;2024-03-08T01:04:09;3.30;99.90
666;DHT22;315;48.738;9.126;2024-03-08T01:06:35;3.30;99.90
666;DHT22;315;48.738;9.126;2024-03-08T01:09:00;3.30;99.90
666;DHT22;315;48.738;9.126;2024-03-08T01:11:26;3.40;99.90
666;DHT22;315;48.738;9.126;2024-03-08T01:13:53;3.30;99.90
666;DHT22;315;48.738;9.126;2024-03-08T01:16:19;3.20;99.90
666;DHT22;315;48.738;9.126;2024-03-08T01:18:45;3.20;99.90
666;DHT22;315;48.738;9.126;2024-03-08T01:21:11;3.10;99.90
666;DHT22;315;48.738;9.126;2024-03-08T01:23:37;3.10;99.90
666;DHT22;315;48.738;9.126;2024-03-08T01:26:03;3.10;99.90
666;DHT22;315;48.738;9.126;2024-03-08T01:28:29;3.10;99.90
666;DHT22;315;48.738;9.126;2024-03-08T01:30:55;3.10;99.90
666;DHT22;315;48.738;9.126;2024-03-08T01:33:24;3.00;99.90
666;DHT22;315;48.738;9.126;2024-03-08T01:35:54;3.00;99.90
666;DHT22;315;48.738;9.126;2024-03-08T01:38:20;3.00;99.90
666;DHT22;315;48.738;9.126;2024-03-08T01:40:49;3.00;99.90
666;DHT22;315;48.738;9.126;2024-03-08T01:43:26;2.90;99.90
666;DHT22;315;48.738;9.126;2024-03-08T01:45:55;2.90;99.90
666;DHT22;315;48.738;9.126;2024-03-08T01:48:21;2.90;99.90
666;DHT22;315;48.738;9.126;2024-03-08T01:50:49;2.90;99.90
666;DHT22;315;48.738;9.126;2024-03-08T01:53:15;3.00;99.90
666;DHT22;315;48.738;9.126;2024-03-08T01:55:44;2.90;99.90
666;DHT22;315;48.738;9.126;2024-03-08T01:58:11;2.90;99.90
666;DHT22;315;48.738;9.126;2024-03-08T02:00:39;2.90;99.90
666;DHT22;315;48.738;9.126;2024-03-08T02:03:05;2.90;99.90
666;DHT22;315;48.738;9.126;2024-03-08T02:05:32;2.90;99.90
666;DHT22;315;48.738;9.126;2024-03-08T02:07:57;2.90;99.90
666;DHT22;315;48.738;9.126;2024-03-08T02:10:24;2.80;99.90
666;DHT22;315;48.738;9.126;2024-03-08T02:12:50;2.80;99.90
666;DHT22;315;48.738;9.126;2024-03-08T02:15:16;2.80;99.90
666;DHT22;315;48.738;9.126;2024-03-08T02:17:41;2.80;99.90
666;DHT22;315;48.738;9.126;2024-03-08T02:20:07;2.80;99.90
666;DHT22;315;48.738;9.126;2024-03-08T02:22:34;2.70;99.90
666;DHT22;315;48.738;9.126;2024-03-08T02:25:02;2.70;99.90
666;DHT22;315;48.738;9.126;2024-03-08T02:27:28;2.70;99.90
666;DHT22;315;48.738;9.126;2024-03-08T02:29:56;2.70;99.90
666;DHT22;315;48.738;9.126;2024-03-08T02:32:25;2.70;99.90
666;DHT22;315;48.738;9.126;2024-03-08T02:34:51;2.60;99.90
666;DHT22;315;48.738;9.126;2024-03-08T02:37:17;2.60;99.90
666;DHT22;315;48.738;9.126;2024-03-08T02:39:43;2.60;99.90
666;DHT22;315;48.738;9.126;2024-03-08T02:42:08;2.60;99.90
666;DHT22;315;48.738;9.126;2024-03-08T02:44:34;2.60;99.90
666;DHT22;315;48.738;9.126;2024-03-08T02:47:00;2.60;99.90
666;DHT22;315;48.738;9.126;2024-03-08T02:49:26;2.60;99.90
666;DHT22;315;48.738;9.126;2024-03-08T02:51:52;2.50;99.90
666;DHT22;315;48.738;9.126;2024-03-08T02:54:18;2.50;99.90
666;DHT22;315;48.738;9.126;2024-03-08T02:56:45;2.50;99.90
666;DHT22;315;48.738;9.126;2024-03-08T02:59:12;2.40;99.90
666;DHT22;315;48.738;9.126;2024-03-08T03:01:38;2.40;99.90
666;DHT22;315;48.738;9.126;2024-03-08T03:04:04;2.40;99.90
666;DHT22;315;48.738;9.126;2024-03-08T03:06:29;2.40;99.90
666;DHT22;315;48.738;9.126;2024-03-08T03:08:55;2.40;99.90
666;DHT22;315;48.738;9.126;2024-03-08T03:11:23;2.40;99.90
666;DHT22;315;48.738;9.126;2024-03-08T03:13:48;2.30;99.90
666;DHT22;315;48.738;9.126;2024-03-08T03:16:18;2.40;99.90
666;DHT22;315;48.738;9.126;2024-03-08T03:18:45;2.40;99.90
666;DHT22;315;48.738;9.126;2024-03-08T03:21:11;2.40;99.90
666;DHT22;315;48.738;9.126;2024-03-08T03:23:41;2.40;99.90
666;DHT22;315;48.738;9.126;2024-03-08T03:26:10;2.30;99.90
666;DHT22;315;48.738;9.126;2024-03-08T03:28:37;2.30;99.90
666;DHT22;315;48.738;9.126;2024-03-08T03:31:07;2.20;99.90
666;DHT22;315;48.738;9.126;2024-03-08T03:33:33;2.20;99.90
666;DHT22;315;48.738;9.126;2024-03-08T03:36:02;2.20;99.90
666;DHT22;315;48.738;9.126;2024-03-08T03:38:28;2.30;99.90
666;DHT22;315;48.738;9.126;2024-03-08T03:40:53;2.20;99.90
666;DHT22;315;48.738;9.126;2024-03-08T03:43:23;2.20;99.90
666;DHT22;315;48.738;9.126;2024-03-08T03:45:48;2.20;99.90
666;DHT22;315;48.738;9.126;2024-03-08T03:48:14;2.20;99.90
666;DHT22;315;48.738;9.126;2024-03-08T03:50:39;2.10;99.90
666;DHT22;315;48.738;9.126;2024-03-08T03:53:05;2.10;99.90
666;DHT22;315;48.738;9.126;2024-03-08T03:55:34;2.10;99.90
666;DHT22;315;48.738;9.126;2024-03-08T03:58:02;2.10;99.90
666;DHT22;315;48.738;9.126;2024-03-08T04:00:28;2.10;99.90
666;DHT22;315;48.738;9.126;2024-03-08T04:02:53;2.10;99.90
666;DHT22;315;48.738;9.126;2024-03-08T04:05:20;2.10;99.90
666;DHT22;315;48.738;9.126;2024-03-08T04:07:45;2.10;99.90
666;DHT22;315;48.738;9.126;2024-03-08T04:10:11;2.00;99.90
666;DHT22;315;48.738;9.126;2024-03-08T04:12:37;2.00;99.90
666;DHT22;315;48.738;9.126;2024-03-08T04:15:04;1.90;99.90
666;DHT22;315;48.738;9.126;2024-03-08T04:17:33;2.00;99.90
666;DHT22;315;48.738;9.126;2024-03-08T04:19:58;2.00;99.90
666;DHT22;315;48.738;9.126;2024-03-08T04:22:24;2.00;99.90
666;DHT22;315;48.738;9.126;2024-03-08T04:24:49;1.90;99.90
666;DHT22;315;48.738;9.126;2024-03-08T04:27:16;1.90;99.90
666;DHT22;315;48.738;9.126;2024-03-08T04:29:41;1.90;99.90
666;DHT22;315;48.738;9.126;2024-03-08T04:32:08;1.90;99.90
666;DHT22;315;48.738;9.126;2024-03-08T04:34:34;1.90;99.90
666;DHT22;315;48.738;9.126;2024-03-08T04:37:01;1.90;99.90
666;DHT22;315;48.738;9.126;2024-03-08T04:39:27;1.80;99.90
666;DHT22;315;48.738;9.126;2024-03-08T04:41:54;1.80;99.90
666;DHT22;315;48.738;9.126;2024-03-08T04:44:22;1.80;99.90
666;DHT22;315;48.738;9.126;2024-03-08T04:46:48;1.80;99.90
666;DHT22;315;48.738;9.126;2024-03-08T04:49:13;1.80;99.90
666;DHT22;315;48.738;9.126;2024-03-08T04:51:39;1.80;99.90
666;DHT22;315;48.738;9.126;2024-03-08T04:54:05;1.80;99.90
666;DHT22;315;48.738;9.126;2024-03-08T04:56:31;1.80;99.90
666;DHT22;315;48.738;9.126;2024-03-08T04:58:57;1.80;99.90
666;DHT22;315;48.738;9.126;2024-03-08T05:01:22;1.80;99.90
666;DHT22;315;48.738;9.126;2024-03-08T05:03:47;1.70;99.90
666;DHT22;315;48.738;9.126;2024-03-08T05:06:15;1.70;99.90
666;DHT22;315;48.738;9.126;2024-03-08T05:08:41;1.70;99.90
666;DHT22;315;48.738;9.126;2024-03-08T05:11:07;1.70;99.90
666;DHT22;315;48.738;9.126;2024-03-08T05:13:32;1.70;99.90
666;DHT22;315;48.738;9.126;2024-03-08T05:15:59;1.70;99.90
666;DHT22;315;48.738;9.126;2024-03-08T05:18:25;1.60;99.90
666;DHT22;315;48.738;9.126;2024-03-08T05:20:50;1.60;99.90
666;DHT22;315;48.738;9.126;2024-03-08T05:23:17;1.70;99.90
666;DHT22;315;48.738;9.126;2024-03-08T05:25:45;1.60;99.90
666;DHT22;315;48.738;9.126;2024-03-08T05:28:12;1.70;99.90
666;DHT22;315;48.738;9.126;2024-03-08T05:30:38;1.70;99.90
666;DHT22;315;48.738;9.126;2024-03-08T05:33:04;1.60;99.90
666;DHT22;315;48.738;9.126;2024-03-08T05:35:29;1.60;99.90
666;DHT22;315;48.738;9.126;2024-03-08T05:37:55;1.60;99.90
666;DHT22;315;48.738;9.126;2024-03-08T05:40:21;1.60;99.90
666;DHT22;315;48.738;9.126;2024-03-08T05:42:47;1.60;99.90
666;DHT22;315;48.738;9.126;2024-03-08T05:45:12;1.50;99.90
666;DHT22;315;48.738;9.126;2024-03-08T05:47:39;1.60;99.90
666;DHT22;315;48.738;9.126;2024-03-08T05:50:05;1.60;99.90
666;DHT22;315;48.738;9.126;2024-03-08T05:52:33;1.60;99.90
666;DHT22;315;48.738;9.126;2024-03-08T05:54:58;1.60;99.90
666;DHT22;315;48.738;9.126;2024-03-08T05:57:24;1.50;99.90
666;DHT22;315;48.738;9.126;2024-03-08T05:59:49;1.50;99.90
666;DHT22;315;48.738;9.126;2024-03-08T06:02:15;1.50;99.90
666;DHT22;315;48.738;9.126;2024-03-08T06:04:47;1.50;99.90
666;DHT22;315;48.738;9.126;2024-03-08T06:07:12;1.50;99.90
666;DHT22;315;48.738;9.126;2024-03-08T06:09:38;1.70;99.90
666;DHT22;315;48.738;9.126;2024-03-08T06:12:04;1.70;99.90
666;DHT22;315;48.738;9.126;2024-03-08T06:14:31;1.70;99.90
666;DHT22;315;48.738;9.126;2024-03-08T06:16:57;1.70;99.90
666;DHT22;315;48.738;9.126;2024-03-08T06:19:23;1.70;99.90
666;DHT22;315;48.738;9.126;2024-03-08T06:21:48;1.70;99.90
666;DHT22;315;48.738;9.126;2024-03-08T06:24:14;1.80;99.90
666;DHT22;315;48.738;9.126;2024-03-08T06:26:40;1.90;99.90
666;DHT22;315;48.738;9.126;2024-03-08T06:29:06;2.10;99.90
666;DHT22;315;48.738;9.126;2024-03-08T06:31:34;2.20;99.90
666;DHT22;315;48.738;9.126;2024-03-08T06:34:04;2.30;99.90
666;DHT22;315;48.738;9.126;2024-03-08T06:36:32;2.40;99.90
666;DHT22;315;48.738;9.126;2024-03-08T06:38:58;2.60;99.90
666;DHT22;315;48.738;9.126;2024-03-08T06:41:24;2.70;99.90
666;DHT22;315;48.738;9.126;2024-03-08T06:43:49;2.80;99.90
666;DHT22;315;48.738;9.126;2024-03-08T06:46:17;2.90;99.90
666;DHT22;315;48.738;9.126;2024-03-08T06:48:43;3.00;99.90
666;DHT22;315;48.738;9.126;2024-03-08T06:51:09;3.00;99.90
666;DHT22;315;48.738;9.126;2024-03-08T06:53:35;3.10;99.90
666;DHT22;315;48.738;9.126;2024-03-08T06:56:02;3.10;99.90
666;DHT22;315;48.738;9.126;2024-03-08T06:58:27;3.20;99.90
666;DHT22;315;48.738;9.126;2024-03-08T07:00:53;3.30;99.90
666;DHT22;315;48.738;9.126;2024-03-08T07:03:19;3.40;99.90
666;DHT22;315;48.738;9.126;2024-03-08T07:05:47;3.50;99.90
666;DHT22;315;48.738;9.126;2024-03-08T07:08:13;3.50;99.90
666;DHT22;315;48.738;9.126;2024-03-08T07:10:39;3.50;99.90
666;DHT22;315;48.738;9.126;2024-03-08T07:13:07;3.60;99.90
666;DHT22;315;48.738;9.126;2024-03-08T07:15:32;3.70;99.90
666;DHT22;315;48.738;9.126;2024-03-08T07:17:58;3.70;99.90
666;DHT22;315;48.738;9.126;2024-03-08T07:20:25;3.70;99.90
666;DHT22;315;48.738;9.126;2024-03-08T07:22:50;3.70;99.90
666;DHT22;315;48.738;9.126;2024-03-08T07:25:17;3.70;99.90
666;DHT22;315;48.738;9.126;2024-03-08T07:27:49;3.80;99.90
666;DHT22;315;48.738;9.126;2024-03-08T07:30:15;3.70;99.90
666;DHT22;315;48.738;9.126;2024-03-08T07:33:00;3.70;99.90
666;DHT22;315;48.738;9.126;2024-03-08T07:35:30;3.50;99.90
666;DHT22;315;48.738;9.126;2024-03-08T07:37:56;3.40;99.90
666;DHT22;315;48.738;9.126;2024-03-08T07:40:22;3.30;99.90
666;DHT22;315;48.738;9.126;2024-03-08T07:42:49;3.40;99.90
666;DHT22;315;48.738;9.126;2024-03-08T07:45:14;3.40;99.90
666;DHT22;315;48.738;9.126;2024-03-08T07:47:41;3.40;99.90
666;DHT22;315;48.738;9.126;2024-03-08T07:50:07;3.50;99.90
666;DHT22;315;48.738;9.126;2024-03-08T07:52:34;3.50;99.90
666;DHT22;315;48.738;9.126;2024-03-08T07:55:00;3.50;99.90
666;DHT22;315;48.738;9.126;2024-03-08T07:57:25;3.50;99.90
666;DHT22;315;48.738;9.126;2024-03-08T07:59:51;3.60;99.90
666;DHT22;315;48.738;9.126;2024-03-08T08:02:17;3.70;99.90
666;DHT22;315;48.738;9.126;2024-03-08T08:04:43;3.70;99.90
666;DHT22;315;48.738;9.126;2024-03-08T08:07:10;3.80;99.90
666;DHT22;315;48.738;9.126;2024-03-08T08:09:36;3.80;99.90
666;DHT22;315;48.738;9.126;2024-03-08T08:12:03;3.70;99.90
666;DHT22;315;48.738;9.126;2024-03-08T08:14:29;3.70;99.90
666;DHT22;315;48.738;9.126;2024-03-08T08:16:55;3.70;99.90
666;DHT22;315;48.738;9.126;2024-03-08T08:19:22;3.90;99.90
666;DHT22;315;48.738;9.126;2024-03-08T08:21:48;3.90;99.90
666;DHT22;315;48.738;9.126;2024-03-08T08:24:14;4.10;99.90
666;DHT22;315;48.738;9.126;2024-03-08T08:26:40;4.30;99.90
666;DHT22;315;48.738;9.126;2024-03-08T08:29:06;4.30;99.90
666;DHT22;315;48.738;9.126;2024-03-08T08:31:32;4.30;99.90
666;DHT22;315;48.738;9.126;2024-03-08T08:33:58;4.30;99.90
666;DHT22;315;48.738;9.126;2024-03-08T08:36:24;4.10;99.90
666;DHT22;315;48.738;9.126;2024-03-08T08:38:50;4.00;99.90
666;DHT22;315;48.738;9.126;2024-03-08T08:41:15;4.00;99.90
666;DHT22;315;48.738;9.126;2024-03-08T08:43:43;4.00;99.90
666;DHT22;315;48.738;9.126;2024-03-08T08:46:10;4.00;99.90
666;DHT22;315;48.738;9.126;2024-03-08T08:48:39;4.10;99.90
666;DHT22;315;48.738;9.126;2024-03-08T08:51:09;4.30;99.90
666;DHT22;315;48.738;9.126;2024-03-08T08:53:38;4.30;99.90
666;DHT22;315;48.738;9.126;2024-03-08T08:56:04;4.30;99.90
666;DHT22;315;48.738;9.126;2024-03-08T08:58:29;4.20;99.90
666;DHT22;315;48.738;9.126;2024-03-08T09:00:55;4.20;99.90
666;DHT22;315;48.738;9.126;2024-03-08T09:03:20;4.10;99.90
666;DHT22;315;48.738;9.126;2024-03-08T09:05:46;4.10;99.90
666;DHT22;315;48.738;9.126;2024-03-08T09:08:11;4.10;99.90
666;DHT22;315;48.738;9.126;2024-03-08T09:10:38;4.10;99.90
666;DHT22;315;48.738;9.126;2024-03-08T09:13:04;4.30;99.90
666;DHT22;315;48.738;9.126;2024-03-08T09:15:29;4.40;99.90
666;DHT22;315;48.738;9.126;2024-03-08T09:17:55;4.20;99.90
666;DHT22;315;48.738;9.126;2024-03-08T09:20:20;4.10;99.90
666;DHT22;315;48.738;9.126;2024-03-08T09:22:46;4.30;99.90
666;DHT22;315;48.738;9.126;2024-03-08T09:25:12;4.20;99.90
666;DHT22;315;48.738;9.126;2024-03-08T09:27:37;4.30;99.90
666;DHT22;315;48.738;9.126;2024-03-08T09:30:05;4.20;99.90
666;DHT22;315;48.738;9.126;2024-03-08T09:32:32;4.10;99.90
666;DHT22;315;48.738;9.126;2024-03-08T09:34:57;4.20;99.90
666;DHT22;315;48.738;9.126;2024-03-08T09:37:23;4.40;99.90
666;DHT22;315;48.738;9.126;2024-03-08T09:39:48;4.50;99.90
666;DHT22;315;48.738;9.126;2024-03-08T09:42:15;4.60;99.90
666;DHT22;315;48.738;9.126;2024-03-08T09:44:47;4.50;99.90
666;DHT22;315;48.738;9.126;2024-03-08T09:47:14;4.40;99.90
666;DHT22;315;48.738;9.126;2024-03-08T09:49:40;4.40;99.90
666;DHT22;315;48.738;9.126;2024-03-08T09:52:09;4.70;99.90
666;DHT22;315;48.738;9.126;2024-03-08T09:54:38;4.80;99.90
666;DHT22;315;48.738;9.126;2024-03-08T09:57:04;4.80;99.90
666;DHT22;315;48.738;9.126;2024-03-08T09:59:30;4.80;99.90
666;DHT22;315;48.738;9.126;2024-03-08T10:02:14;5.00;99.90
666;DHT22;315;48.738;9.126;2024-03-08T10:04:40;5.20;99.90
666;DHT22;315;48.738;9.126;2024-03-08T10:07:11;5.10;99.90
666;DHT22;315;48.738;9.126;2024-03-08T10:09:38;5.30;99.90
666;DHT22;315;48.738;9.126;2024-03-08T10:12:04;5.40;99.90
666;DHT22;315;48.738;9.126;2024-03-08T10:14:30;5.50;99.90
666;DHT22;315;48.738;9.126;2024-03-08T10:16:57;5.60;99.90
666;DHT22;315;48.738;9.126;2024-03-08T10:19:25;5.70;99.90
666;DHT22;315;48.738;9.126;2024-03-08T10:21:51;5.80;99.90
666;DHT22;315;48.738;9.126;2024-03-08T10:24:22;5.70;99.90
666;DHT22;315;48.738;9.126;2024-03-08T10:26:52;5.70;99.90
666;DHT22;315;48.738;9.126;2024-03-08T10:29:18;5.60;99.90
666;DHT22;315;48.738;9.126;2024-03-08T10:31:44;5.60;99.90
666;DHT22;315;48.738;9.126;2024-03-08T10:34:10;5.70;99.90
666;DHT22;315;48.738;9.126;2024-03-08T10:36:36;5.70;99.90
666;DHT22;315;48.738;9.126;2024-03-08T10:39:03;5.90;99.90
666;DHT22;315;48.738;9.126;2024-03-08T10:41:37;5.70;99.90
666;DHT22;315;48.738;9.126;2024-03-08T10:47:15;5.90;99.90
666;DHT22;315;48.738;9.126;2024-03-08T10:52:29;6.40;99.90
666;DHT22;315;48.738;9.126;2024-03-08T10:54:56;6.30;99.90
666;DHT22;315;48.738;9.126;2024-03-08T10:57:22;6.20;99.90
666;DHT22;315;48.738;9.126;2024-03-08T10:59:49;6.30;99.90
666;DHT22;315;48.738;9.126;2024-03-08T11:02:16;6.50;99.90
666;DHT22;315;48.738;9.126;2024-03-08T11:04:50;6.70;99.90
666;DHT22;315;48.738;9.126;2024-03-08T11:07:16;7.00;99.90
666;DHT22;315;48.738;9.126;2024-03-08T11:09:44;7.20;99.90
666;DHT22;315;48.738;9.126;2024-03-08T11:12:25;7.90;99.90
666;DHT22;315;48.738;9.126;2024-03-08T11:14:52;10.00;99.90
666;DHT22;315;48.738;9.126;2024-03-08T11:17:25;10.20;99.90
666;DHT22;315;48.738;9.126;2024-03-08T11:19:55;9.50;99.90
666;DHT22;315;48.738;9.126;2024-03-08T11:22:28;9.20;99.90
666;DHT22;315;48.738;9.126;2024-03-08T11:25:02;9.00;99.90
666;DHT22;315;48.738;9.126;2024-03-08T11:27:31;8.80;99.90
666;DHT22;315;48.738;9.126;2024-03-08T11:30:07;8.40;99.90
666;DHT22;315;48.738;9.126;2024-03-08T11:32:37;8.40;99.90
666;DHT22;315;48.738;9.126;2024-03-08T11:35:07;8.50;99.90
666;DHT22;315;48.738;9.126;2024-03-08T11:37:34;10.10;99.90
666;DHT22;315;48.738;9.126;2024-03-08T11:40:01;12.30;99.90
666;DHT22;315;48.738;9.126;2024-03-08T11:42:30;13.20;99.90
666;DHT22;315;48.738;9.126;2024-03-08T11:44:56;13.00;99.90
666;DHT22;315;48.738;9.126;2024-03-08T11:47:22;12.50;99.90
666;DHT22;315;48.738;9.126;2024-03-08T11:49:47;13.60;97.40
666;DHT22;315;48.738;9.126;2024-03-08T11:52:15;12.60;98.10
666;DHT22;315;48.738;9.126;2024-03-08T11:54:54;12.80;99.10
666;DHT22;315;48.738;9.126;2024-03-08T11:57:22;14.70;92.60
666;DHT22;315;48.738;9.126;2024-03-08T11:59:51;14.20;92.50
666;DHT22;315;48.738;9.126;2024-03-08T12:02:17;13.60;94.20
666;DHT22;315;48.738;9.126;2024-03-08T12:04:44;13.30;96.10
666;DHT22;315;48.738;9.126;2024-03-08T12:07:11;12.20;99.20
666;DHT22;315;48.738;9.126;2024-03-08T12:09:40;13.40;98.70
666;DHT22;315;48.738;9.126;2024-03-08T12:12:07;14.60;91.10
666;DHT22;315;48.738;9.126;2024-03-08T12:14:33;14.90;90.00
666;DHT22;315;48.738;9.126;2024-03-08T12:16:59;15.70;86.80
666;DHT22;315;48.738;9.126;2024-03-08T12:19:27;16.80;78.90
666;DHT22;315;48.738;9.126;2024-03-08T12:21:54;18.00;69.20
666;DHT22;315;48.738;9.126;2024-03-08T12:24:20;17.30;64.10
666;DHT22;315;48.738;9.126;2024-03-08T12:26:47;16.80;67.00
666;DHT22;315;48.738;9.126;2024-03-08T12:29:26;15.40;69.30
666;DHT22;315;48.738;9.126;2024-03-08T12:31:59;15.70;73.40
666;DHT22;315;48.738;9.126;2024-03-08T12:34:26;16.90;68.50
666;DHT22;315;48.738;9.126;2024-03-08T12:36:53;17.90;62.80
666;DHT22;315;48.738;9.126;2024-03-08T12:39:21;19.20;57.50
666;DHT22;315;48.738;9.126;2024-03-08T12:41:53;19.70;54.60
666;DHT22;315;48.738;9.126;2024-03-08T12:44:29;20.50;50.90
666;DHT22;315;48.738;9.126;2024-03-08T12:46:54;20.50;49.40
666;DHT22;315;48.738;9.126;2024-03-08T12:49:20;21.20;46.20
666;DHT22;315;48.738;9.126;2024-03-08T12:51:48;20.00;46.60
666;DHT22;315;48.738;9.126;2024-03-08T12:54:14;21.00;46.10
666;DHT22;315;48.738;9.126;2024-03-08T12:56:40;20.20;45.40
666;DHT22;315;48.738;9.126;2024-03-08T12:59:07;19.00;46.90
666;DHT22;315;48.738;9.126;2024-03-08T13:01:33;19.90;47.40
666;DHT22;315;48.738;9.126;2024-03-08T13:03:59;20.40;46.10
666;DHT22;315;48.738;9.126;2024-03-08T13:06:27;21.40;43.90
666;DHT22;315;48.738;9.126;2024-03-08T13:08:54;22.10;41.50
666;DHT22;315;48.738;9.126;2024-03-08T13:11:21;22.60;40.60
666;DHT22;315;48.738;9.126;2024-03-08T13:13:46;22.10;40.10
666;DHT22;315;48.738;9.126;2024-03-08T13:16:12;22.50;39.00
666;DHT22;315;48.738;9.126;2024-03-08T13:18:42;22.40;38.20
666;DHT22;315;48.738;9.126;2024-03-08T13:21:08;22.90;37.50
666;DHT22;315;48.738;9.126;2024-03-08T13:23:35;23.50;36.80
666;DHT22;315;48.738;9.126;2024-03-08T13:26:06;24.40;34.80
666;DHT22;315;48.738;9.126;2024-03-08T13:28:32;24.20;34.20
666;DHT22;315;48.738;9.126;2024-03-08T13:31:05;23.80;34.20
666;DHT22;315;48.738;9.126;2024-03-08T13:33:35;23.70;33.60
666;DHT22;315;48.738;9.126;2024-03-08T13:36:03;23.00;33.70
666;DHT22;315;48.738;9.126;2024-03-08T13:38:32;22.80;34.10
666;DHT22;315;48.738;9.126;2024-03-08T13:40:58;21.10;35.30
666;DHT22;315;48.738;9.126;2024-03-08T13:43:24;21.60;36.00
666;DHT22;315;48.738;9.126;2024-03-08T13:45:49;21.60;35.60
666;DHT22;315;48.738;9.126;2024-03-08T13:48:15;21.20;36.30
666;DHT22;315;48.738;9.126;2024-03-08T13:50:41;22.60;33.90
666;DHT22;315;48.738;9.126;2024-03-08T13:53:07;22.70;33.70
666;DHT22;315;48.738;9.126;2024-03-08T13:55:32;21.60;33.90
666;DHT22;315;48.738;9.126;2024-03-08T13:57:58;20.50;35.80
666;DHT22;315;48.738;9.126;2024-03-08T14:00:25;19.20;37.90
666;DHT22;315;48.738;9.126;2024-03-08T14:02:53;18.60;39.30
666;DHT22;315;48.738;9.126;2024-03-08T14:05:19;17.10;40.80
666;DHT22;315;48.738;9.126;2024-03-08T14:07:45;15.80;44.90
666;DHT22;315;48.738;9.126;2024-03-08T14:10:14;15.30;47.80
666;DHT22;315;48.738;9.126;2024-03-08T14:12:40;14.50;53.60
666;DHT22;315;48.738;9.126;2024-03-08T14:15:06;13.70;59.90
666;DHT22;315;48.738;9.126;2024-03-08T14:17:33;12.50;71.00
666;DHT22;315;48.738;9.126;2024-03-08T14:19:58;11.60;86.50
666;DHT22;315;48.738;9.126;2024-03-08T14:22:24;11.10;93.50
666;DHT22;315;48.738;9.126;2024-03-08T14:24:50;10.50;97.20
666;DHT22;315;48.738;9.126;2024-03-08T14:27:17;10.40;99.90
666;DHT22;315;48.738;9.126;2024-03-08T14:29:44;10.40;99.90
666;DHT22;315;48.738;9.126;2024-03-08T14:32:09;10.00;99.90
666;DHT22;315;48.738;9.126;2024-03-08T14:34:35;10.10;99.90
666;DHT22;315;48.738;9.126;2024-03-08T14:37:01;10.20;99.90
666;DHT22;315;48.738;9.126;2024-03-08T14:39:31;10.00;99.90
666;DHT22;315;48.738;9.126;2024-03-08T14:41:59;9.70;99.90
666;DHT22;315;48.738;9.126;2024-03-08T14:44:25;9.70;99.90
666;DHT22;315;48.738;9.126;2024-03-08T14:46:52;9.60;99.90
666;DHT22;315;48.738;9.126;2024-03-08T14:49:18;9.60;99.90
666;DHT22;315;48.738;9.126;2024-03-08T14:51:44;9.60;99.90
666;DHT22;315;48.738;9.126;2024-03-08T14:54:10;9.60;99.90
666;DHT22;315;48.738;9.126;2024-03-08T14:56:38;9.50;99.90
666;DHT22;315;48.738;9.126;2024-03-08T14:59:07;9.40;99.90
666;DHT22;315;48.738;9.126;2024-03-08T15:01:32;9.50;99.90
666;DHT22;315;48.738;9.126;2024-03-08T15:04:04;9.50;99.90
666;DHT22;315;48.738;9.126;2024-03-08T15:06:37;9.60;99.90
666;DHT22;315;48.738;9.126;2024-03-08T15:09:04;9.60;99.90
666;DHT22;315;48.738;9.126;2024-03-08T15:11:41;9.60;99.90
666;DHT22;315;48.738;9.126;2024-03-08T15:14:08;9.50;99.90
666;DHT22;315;48.738;9.126;2024-03-08T15:16:40;9.40;99.90
666;DHT22;315;48.738;9.126;2024-03-08T15:19:07;9.20;99.90
666;DHT22;315;48.738;9.126;2024-03-08T15:21:33;9.20;99.90
666;DHT22;315;48.738;9.126;2024-03-08T15:24:00;9.20;99.90
666;DHT22;315;48.738;9.126;2024-03-08T15:26:28;9.20;99.90
666;DHT22;315;48.738;9.126;2024-03-08T15:28:55;9.20;99.90
666;DHT22;315;48.738;9.126;2024-03-08T15:31:21;9.30;99.90
666;DHT22;315;48.738;9.126;2024-03-08T15:33:50;9.30;99.90
666;DHT22;315;48.738;9.126;2024-03-08T15:36:23;9.30;99.90
666;DHT22;315;48.738;9.126;2024-03-08T15:38:53;9.30;99.90
666;DHT22;315;48.738;9.126;2024-03-08T15:41:19;9.30;99.90
666;DHT22;315;48.738;9.126;2024-03-08T15:43:46;9.40;99.90
666;DHT22;315;48.738;9.126;2024-03-08T15:46:11;9.40;99.90
666;DHT22;315;48.738;9.126;2024-03-08T15:48:38;9.30;99.90
666;DHT22;315;48.738;9.126;2024-03-08T15:51:05;9.30;99.90
666;DHT22;315;48.738;9.126;2024-03-08T15:53:35;9.30;99.90
666;DHT22;315;48.738;9.126;2024-03-08T15:56:02;9.30;99.90
666;DHT22;315;48.738;9.126;2024-03-08T15:58:37;9.30;99.90
666;DHT22;315;48.738;9.126;2024-03-08T16:01:03;9.30;99.90
666;DHT22;315;48.738;9.126;2024-03-08T16:03:31;9.30;99.90
666;DHT22;315;48.738;9.126;2024-03-08T16:05:57;9.20;99.90
666;DHT22;315;48.738;9.126;2024-03-08T16:08:23;9.20;99.90
666;DHT22;315;48.738;9.126;2024-03-08T16:10:55;9.20;99.90
666;DHT22;315;48.738;9.126;2024-03-08T16:15:49;9.20;99.90
666;DHT22;315;48.738;9.126;2024-03-08T16:18:15;9.20;99.90
666;DHT22;315;48.738;9.126;2024-03-08T16:20:41;9.20;99.90
666;DHT22;315;48.738;9.126;2024-03-08T16:23:10;9.10;99.90
666;DHT22;315;48.738;9.126;2024-03-08T16:25:36;9.10;99.90
666;DHT22;315;48.738;9.126;2024-03-08T16:28:02;9.10;99.90
666;DHT22;315;48.738;9.126;2024-03-08T16:30:28;9.10;99.90
666;DHT22;315;48.738;9.126;2024-03-08T16:32:57;9.10;99.90
666;DHT22;315;48.738;9.126;2024-03-08T16:35:23;9.10;99.90
666;DHT22;315;48.738;9.126;2024-03-08T16:37:49;9.10;99.90
666;DHT22;315;48.738;9.126;2024-03-08T16:40:16;9.00;99.90
666;DHT22;315;48.738;9.126;2024-03-08T16:42:51;8.90;99.90
666;DHT22;315;48.738;9.126;2024-03-08T16:45:21;8.90;99.90
666;DHT22;315;48.738;9.126;2024-03-08T16:47:48;8.90;99.90
666;DHT22;315;48.738;9.126;2024-03-08T16:50:17;8.80;99.90
666;DHT22;315;48.738;9.126;2024-03-08T16:52:43;8.80;99.90
666;DHT22;315;48.738;9.126;2024-03-08T16:55:10;8.70;99.90